sensor_id;sensor_type;location;lat;lon;timestamp;temperature;humidity
8178;DHT22;4130;48.740;9.132;2023-08-08T00:08:49;11.70;99.90
8178;DHT22;4130;48.740;9.132;2023-08-08T00:11:35;11.60;99.90
8178;DHT22;4130;48.740;9.132;2023-08-08T00:20:46;11.80;99.90
8178;DHT22;4130;48.740;9.132;2023-08-08T00:23:13;11.80;99.90
8178;DHT22;4130;48.740;9.132;2023-08-08T00:25:42;11.90;99.90
8178;DHT22;4130;48.740;9.132;2023-08-08T00:28:09;11.90;99.90
8178;DHT22;4130;48.740;9.132;2023-08-08T00:30:36;12.00;99.90
8178;DHT22;4130;48.740;9.132;2023-08-08T00:33:03;12.00;99.90
8178;DHT22;4130;48.740;9.132;2023-08-08T00:35:30;12.10;99.90
8178;DHT22;4130;48.740;9.132;2023-08-08T00:37:57;12.20;99.90
8178;DHT22;4130;48.740;9.132;2023-08-08T00:40:24;12.30;99.90
8178;DHT22;4130;48.740;9.132;2023-08-08T00:42:53;12.40;99.90
8178;DHT22;4130;48.740;9.132;2023-08-08T00:48:44;12.50;99.90
8178;DHT22;4130;48.740;9.132;2023-08-08T00:51:13;12.50;99.90
8178;DHT22;4130;48.740;9.132;2023-08-08T00:53:40;12.60;99.90
8178;DHT22;4130;48.740;9.132;2023-08-08T00:56:07;12.70;99.90
8178;DHT22;4130;48.740;9.132;2023-08-08T00:58:36;12.70;99.90
8178;DHT22;4130;48.740;9.132;2023-08-08T01:01:03;12.80;99.90
8178;DHT22;4130;48.740;9.132;2023-08-08T01:03:30;12.80;99.90
8178;DHT22;4130;48.740;9.132;2023-08-08T01:06:03;12.80;99.90
8178;DHT22;4130;48.740;9.132;2023-08-08T01:08:38;12.80;99.90
8178;DHT22;4130;48.740;9.132;2023-08-08T01:11:06;12.90;99.90
8178;DHT22;4130;48.740;9.132;2023-08-08T01:13:33;12.90;99.90
8178;DHT22;4130;48.740;9.132;2023-08-08T01:16:03;12.90;99.90
8178;DHT22;4130;48.740;9.132;2023-08-08T01:18:32;13.00;99.90
8178;DHT22;4130;48.740;9.132;2023-08-08T01:20:59;13.00;99.90
8178;DHT22;4130;48.740;9.132;2023-08-08T01:23:30;13.00;99.90
8178;DHT22;4130;48.740;9.132;2023-08-08T01:25:59;13.00;99.90
8178;DHT22;4130;48.740;9.132;2023-08-08T01:28:26;13.10;99.90
8178;DHT22;4130;48.740;9.132;2023-08-08T01:30:54;13.10;99.90
8178;DHT22;4130;48.740;9.132;2023-08-08T01:33:20;13.10;99.90
8178;DHT22;4130;48.740;9.132;2023-08-08T01:36:00;13.20;99.90
8178;DHT22;4130;48.740;9.132;2023-08-08T01:38:31;13.20;99.90
8178;DHT22;4130;48.740;9.132;2023-08-08T01:41:00;13.30;99.90
8178;DHT22;4130;48.740;9.132;2023-08-08T01:43:28;13.30;99.90
8178;DHT22;4130;48.740;9.132;2023-08-08T01:45:56;13.30;99.90
8178;DHT22;4130;48.740;9.132;2023-08-08T01:48:57;13.30;99.90
8178;DHT22;4130;48.740;9.132;2023-08-08T01:51:27;13.30;99.90
8178;DHT22;4130;48.740;9.132;2023-08-08T01:53:54;13.30;99.90
8178;DHT22;4130;48.740;9.132;2023-08-08T01:56:22;13.40;99.90
8178;DHT22;4130;48.740;9.132;2023-08-08T01:58:50;13.30;99.90
8178;DHT22;4130;48.740;9.132;2023-08-08T02:01:19;13.30;99.90
8178;DHT22;4130;48.740;9.132;2023-08-08T02:03:46;13.30;99.90
8178;DHT22;4130;48.740;9.132;2023-08-08T02:06:14;13.30;99.90
8178;DHT22;4130;48.740;9.132;2023-08-08T02:08:41;13.40;99.90
8178;DHT22;4130;48.740;9.132;2023-08-08T02:11:08;13.40;99.90
8178;DHT22;4130;48.740;9.132;2023-08-08T02:13:37;13.40;99.90
8178;DHT22;4130;48.740;9.132;2023-08-08T02:16:04;13.30;99.90
8178;DHT22;4130;48.740;9.132;2023-08-08T02:18:31;13.30;99.90
8178;DHT22;4130;48.740;9.132;2023-08-08T02:20:58;13.30;99.90
8178;DHT22;4130;48.740;9.132;2023-08-08T02:23:26;13.20;99.90
8178;DHT22;4130;48.740;9.132;2023-08-08T02:25:53;13.20;99.90
8178;DHT22;4130;48.740;9.132;2023-08-08T02:28:20;13.10;99.90
8178;DHT22;4130;48.740;9.132;2023-08-08T02:30:48;13.00;99.90
8178;DHT22;4130;48.740;9.132;2023-08-08T02:33:15;13.00;99.90
8178;DHT22;4130;48.740;9.132;2023-08-08T02:35:42;12.90;99.90
8178;DHT22;4130;48.740;9.132;2023-08-08T02:38:09;12.80;99.90
8178;DHT22;4130;48.740;9.132;2023-08-08T02:40:36;12.70;99.90
8178;DHT22;4130;48.740;9.132;2023-08-08T02:43:04;12.70;99.90
8178;DHT22;4130;48.740;9.132;2023-08-08T02:45:31;12.70;99.90
8178;DHT22;4130;48.740;9.132;2023-08-08T02:47:59;12.70;99.90
8178;DHT22;4130;48.740;9.132;2023-08-08T02:50:26;12.70;99.90
8178;DHT22;4130;48.740;9.132;2023-08-08T02:52:53;12.70;99.90
8178;DHT22;4130;48.740;9.132;2023-08-08T02:55:20;12.70;99.90
8178;DHT22;4130;48.740;9.132;2023-08-08T02:57:47;12.60;99.90
8178;DHT22;4130;48.740;9.132;2023-08-08T03:00:14;12.60;99.90
8178;DHT22;4130;48.740;9.132;2023-08-08T03:02:41;12.50;99.90
8178;DHT22;4130;48.740;9.132;2023-08-08T03:05:10;12.50;99.90
8178;DHT22;4130;48.740;9.132;2023-08-08T03:07:37;12.40;99.90
8178;DHT22;4130;48.740;9.132;2023-08-08T03:10:04;12.30;99.90
8178;DHT22;4130;48.740;9.132;2023-08-08T03:12:32;12.30;99.90
8178;DHT22;4130;48.740;9.132;2023-08-08T03:14:58;12.30;99.90
8178;DHT22;4130;48.740;9.132;2023-08-08T03:17:25;12.20;99.90
8178;DHT22;4130;48.740;9.132;2023-08-08T03:19:52;12.20;99.90
8178;DHT22;4130;48.740;9.132;2023-08-08T03:22:21;12.20;99.90
8178;DHT22;4130;48.740;9.132;2023-08-08T03:24:47;12.30;99.90
8178;DHT22;4130;48.740;9.132;2023-08-08T03:27:14;12.30;99.90
8178;DHT22;4130;48.740;9.132;2023-08-08T03:29:41;12.30;99.90
8178;DHT22;4130;48.740;9.132;2023-08-08T03:32:08;12.30;99.90
8178;DHT22;4130;48.740;9.132;2023-08-08T03:34:35;12.20;99.90
8178;DHT22;4130;48.740;9.132;2023-08-08T03:37:02;12.30;99.90
8178;DHT22;4130;48.740;9.132;2023-08-08T03:39:30;12.30;99.90
8178;DHT22;4130;48.740;9.132;2023-08-08T03:41:57;12.40;99.90
8178;DHT22;4130;48.740;9.132;2023-08-08T03:44:24;12.40;99.90
8178;DHT22;4130;48.740;9.132;2023-08-08T03:46:51;12.50;99.90
8178;DHT22;4130;48.740;9.132;2023-08-08T03:49:18;12.60;99.90
8178;DHT22;4130;48.740;9.132;2023-08-08T03:51:45;12.60;99.90
8178;DHT22;4130;48.740;9.132;2023-08-08T03:54:13;12.70;99.90
8178;DHT22;4130;48.740;9.132;2023-08-08T03:56:42;12.80;99.90
8178;DHT22;4130;48.740;9.132;2023-08-08T03:59:09;12.90;99.90
8178;DHT22;4130;48.740;9.132;2023-08-08T04:01:36;13.00;99.90
8178;DHT22;4130;48.740;9.132;2023-08-08T04:04:04;13.00;99.90
8178;DHT22;4130;48.740;9.132;2023-08-08T04:06:31;12.90;99.90
8178;DHT22;4130;48.740;9.132;2023-08-08T04:08:58;13.00;99.90
8178;DHT22;4130;48.740;9.132;2023-08-08T04:11:26;13.00;99.90
8178;DHT22;4130;48.740;9.132;2023-08-08T04:13:54;13.10;99.90
8178;DHT22;4130;48.740;9.132;2023-08-08T04:16:21;13.10;99.90
8178;DHT22;4130;48.740;9.132;2023-08-08T04:18:48;13.10;99.90
8178;DHT22;4130;48.740;9.132;2023-08-08T04:21:15;13.20;99.90
8178;DHT22;4130;48.740;9.132;2023-08-08T04:23:42;13.20;99.90
8178;DHT22;4130;48.740;9.132;2023-08-08T04:26:09;13.20;99.90
8178;DHT22;4130;48.740;9.132;2023-08-08T04:28:36;13.20;99.90
8178;DHT22;4130;48.740;9.132;2023-08-08T04:31:04;13.20;99.90
8178;DHT22;4130;48.740;9.132;2023-08-08T04:33:31;13.20;99.90
8178;DHT22;4130;48.740;9.132;2023-08-08T04:35:58;13.20;99.90
8178;DHT22;4130;48.740;9.132;2023-08-08T04:38:25;13.20;99.90
8178;DHT22;4130;48.740;9.132;2023-08-08T04:40:52;13.20;99.90
8178;DHT22;4130;48.740;9.132;2023-08-08T04:43:19;13.20;99.90
8178;DHT22;4130;48.740;9.132;2023-08-08T04:45:45;13.20;99.90
8178;DHT22;4130;48.740;9.132;2023-08-08T04:48:14;13.20;99.90
8178;DHT22;4130;48.740;9.132;2023-08-08T04:50:41;13.20;99.90
8178;DHT22;4130;48.740;9.132;2023-08-08T04:53:08;13.10;99.90
8178;DHT22;4130;48.740;9.132;2023-08-08T04:55:35;13.10;99.90
8178;DHT22;4130;48.740;9.132;2023-08-08T04:58:02;13.10;99.90
8178;DHT22;4130;48.740;9.132;2023-08-08T05:00:28;13.10;99.90
8178;DHT22;4130;48.740;9.132;2023-08-08T05:02:55;13.10;99.90
8178;DHT22;4130;48.740;9.132;2023-08-08T05:05:24;13.10;99.90
8178;DHT22;4130;48.740;9.132;2023-08-08T05:07:51;13.20;99.90
8178;DHT22;4130;48.740;9.132;2023-08-08T05:10:18;13.20;99.90
8178;DHT22;4130;48.740;9.132;2023-08-08T05:12:45;13.20;99.90
8178;DHT22;4130;48.740;9.132;2023-08-08T05:15:12;13.30;99.90
8178;DHT22;4130;48.740;9.132;2023-08-08T05:17:39;13.30;99.90
8178;DHT22;4130;48.740;9.132;2023-08-08T05:20:07;13.30;99.90
8178;DHT22;4130;48.740;9.132;2023-08-08T05:22:36;13.30;99.90
8178;DHT22;4130;48.740;9.132;2023-08-08T05:25:03;13.30;99.90
8178;DHT22;4130;48.740;9.132;2023-08-08T05:27:30;13.30;99.90
8178;DHT22;4130;48.740;9.132;2023-08-08T05:29:58;13.30;99.90
8178;DHT22;4130;48.740;9.132;2023-08-08T05:32:24;13.30;99.90
8178;DHT22;4130;48.740;9.132;2023-08-08T05:34:51;13.30;99.90
8178;DHT22;4130;48.740;9.132;2023-08-08T05:40:42;13.40;99.90
8178;DHT22;4130;48.740;9.132;2023-08-08T05:43:15;13.40;99.90
8178;DHT22;4130;48.740;9.132;2023-08-08T05:45:44;13.30;99.90
8178;DHT22;4130;48.740;9.132;2023-08-08T05:48:11;13.30;99.90
8178;DHT22;4130;48.740;9.132;2023-08-08T05:50:38;13.30;99.90
8178;DHT22;4130;48.740;9.132;2023-08-08T05:53:05;13.30;99.90
8178;DHT22;4130;48.740;9.132;2023-08-08T05:55:32;13.20;99.90
8178;DHT22;4130;48.740;9.132;2023-08-08T05:58:00;13.20;99.90
8178;DHT22;4130;48.740;9.132;2023-08-08T06:00:27;13.20;99.90
8178;DHT22;4130;48.740;9.132;2023-08-08T06:02:54;13.30;99.90
8178;DHT22;4130;48.740;9.132;2023-08-08T06:05:22;13.40;99.90
8178;DHT22;4130;48.740;9.132;2023-08-08T06:07:49;13.40;99.90
8178;DHT22;4130;48.740;9.132;2023-08-08T06:10:16;13.40;99.90
8178;DHT22;4130;48.740;9.132;2023-08-08T06:12:43;13.50;99.90
8178;DHT22;4130;48.740;9.132;2023-08-08T06:15:12;13.60;99.90
8178;DHT22;4130;48.740;9.132;2023-08-08T06:17:39;13.60;99.90
8178;DHT22;4130;48.740;9.132;2023-08-08T06:20:07;13.70;99.90
8178;DHT22;4130;48.740;9.132;2023-08-08T06:22:34;13.90;99.90
8178;DHT22;4130;48.740;9.132;2023-08-08T06:25:01;14.00;99.90
8178;DHT22;4130;48.740;9.132;2023-08-08T06:27:29;14.00;99.90
8178;DHT22;4130;48.740;9.132;2023-08-08T06:29:56;14.10;99.90
8178;DHT22;4130;48.740;9.132;2023-08-08T06:32:25;14.20;99.90
8178;DHT22;4130;48.740;9.132;2023-08-08T06:34:52;14.30;99.90
8178;DHT22;4130;48.740;9.132;2023-08-08T06:37:19;14.40;99.90
8178;DHT22;4130;48.740;9.132;2023-08-08T06:39:46;14.50;99.90
8178;DHT22;4130;48.740;9.132;2023-08-08T06:42:13;14.60;99.90
8178;DHT22;4130;48.740;9.132;2023-08-08T06:44:44;14.60;99.90
8178;DHT22;4130;48.740;9.132;2023-08-08T06:47:12;14.70;99.90
8178;DHT22;4130;48.740;9.132;2023-08-08T06:49:42;14.70;99.90
8178;DHT22;4130;48.740;9.132;2023-08-08T06:52:09;14.70;99.90
8178;DHT22;4130;48.740;9.132;2023-08-08T06:54:36;14.70;99.90
8178;DHT22;4130;48.740;9.132;2023-08-08T06:57:03;14.90;99.90
8178;DHT22;4130;48.740;9.132;2023-08-08T06:59:32;15.00;99.90
8178;DHT22;4130;48.740;9.132;2023-08-08T07:01:59;15.10;99.90
8178;DHT22;4130;48.740;9.132;2023-08-08T07:04:31;15.30;99.90
8178;DHT22;4130;48.740;9.132;2023-08-08T07:07:03;15.50;99.90
8178;DHT22;4130;48.740;9.132;2023-08-08T07:09:33;15.60;99.90
8178;DHT22;4130;48.740;9.132;2023-08-08T07:12:09;15.90;99.90
8178;DHT22;4130;48.740;9.132;2023-08-08T07:14:59;16.10;99.90
8178;DHT22;4130;48.740;9.132;2023-08-08T07:17:27;16.30;99.90
8178;DHT22;4130;48.740;9.132;2023-08-08T07:19:55;16.50;99.90
8178;DHT22;4130;48.740;9.132;2023-08-08T07:22:24;16.90;99.90
8178;DHT22;4130;48.740;9.132;2023-08-08T07:24:51;17.10;99.90
8178;DHT22;4130;48.740;9.132;2023-08-08T07:27:19;17.20;99.90
8178;DHT22;4130;48.740;9.132;2023-08-08T07:29:46;17.20;99.90
8178;DHT22;4130;48.740;9.132;2023-08-08T07:32:13;17.30;99.90
8178;DHT22;4130;48.740;9.132;2023-08-08T07:34:42;17.30;99.90
8178;DHT22;4130;48.740;9.132;2023-08-08T07:37:09;17.20;99.90
8178;DHT22;4130;48.740;9.132;2023-08-08T07:39:38;17.10;99.90
8178;DHT22;4130;48.740;9.132;2023-08-08T07:42:05;17.00;99.90
8178;DHT22;4130;48.740;9.132;2023-08-08T07:44:35;17.10;99.90
8178;DHT22;4130;48.740;9.132;2023-08-08T07:47:07;17.20;99.90
8178;DHT22;4130;48.740;9.132;2023-08-08T07:49:38;17.30;99.90
8178;DHT22;4130;48.740;9.132;2023-08-08T07:52:22;17.50;99.80
8178;DHT22;4130;48.740;9.132;2023-08-08T07:54:54;17.70;98.80
8178;DHT22;4130;48.740;9.132;2023-08-08T07:57:23;17.80;98.80
8178;DHT22;4130;48.740;9.132;2023-08-08T07:59:50;17.90;98.90
8178;DHT22;4130;48.740;9.132;2023-08-08T08:02:18;18.20;98.20
8178;DHT22;4130;48.740;9.132;2023-08-08T08:04:45;18.50;98.10
8178;DHT22;4130;48.740;9.132;2023-08-08T08:07:12;18.50;97.30
8178;DHT22;4130;48.740;9.132;2023-08-08T08:09:40;18.40;97.20
8178;DHT22;4130;48.740;9.132;2023-08-08T08:12:09;18.50;97.20
8178;DHT22;4130;48.740;9.132;2023-08-08T08:14:36;18.70;97.40
8178;DHT22;4130;48.740;9.132;2023-08-08T08:17:05;18.90;96.90
8178;DHT22;4130;48.740;9.132;2023-08-08T08:19:32;19.00;96.50
8178;DHT22;4130;48.740;9.132;2023-08-08T08:22:03;18.90;96.20
8178;DHT22;4130;48.740;9.132;2023-08-08T08:24:50;18.90;96.70
8178;DHT22;4130;48.740;9.132;2023-08-08T08:27:19;19.00;96.30
8178;DHT22;4130;48.740;9.132;2023-08-08T08:29:46;18.90;96.00
8178;DHT22;4130;48.740;9.132;2023-08-08T08:32:13;19.00;95.80
8178;DHT22;4130;48.740;9.132;2023-08-08T08:34:41;19.00;96.20
8178;DHT22;4130;48.740;9.132;2023-08-08T08:37:10;19.10;95.70
8178;DHT22;4130;48.740;9.132;2023-08-08T08:39:52;19.00;95.50
8178;DHT22;4130;48.740;9.132;2023-08-08T08:42:20;19.10;96.20
8178;DHT22;4130;48.740;9.132;2023-08-08T08:44:49;19.10;95.90
8178;DHT22;4130;48.740;9.132;2023-08-08T08:47:19;19.10;95.60
8178;DHT22;4130;48.740;9.132;2023-08-08T08:49:47;19.10;95.50
8178;DHT22;4130;48.740;9.132;2023-08-08T08:52:14;19.20;95.30
8178;DHT22;4130;48.740;9.132;2023-08-08T08:54:41;19.30;95.90
8178;DHT22;4130;48.740;9.132;2023-08-08T08:57:08;19.50;95.70
8178;DHT22;4130;48.740;9.132;2023-08-08T08:59:37;19.60;95.20
8178;DHT22;4130;48.740;9.132;2023-08-08T09:02:08;19.70;94.30
8178;DHT22;4130;48.740;9.132;2023-08-08T09:04:38;19.70;94.50
8178;DHT22;4130;48.740;9.132;2023-08-08T09:07:09;19.80;95.00
8178;DHT22;4130;48.740;9.132;2023-08-08T09:09:37;19.90;95.20
8178;DHT22;4130;48.740;9.132;2023-08-08T09:15:13;19.90;94.50
8178;DHT22;4130;48.740;9.132;2023-08-08T09:17:43;20.20;94.20
8178;DHT22;4130;48.740;9.132;2023-08-08T09:20:13;20.10;93.90
8178;DHT22;4130;48.740;9.132;2023-08-08T09:22:42;20.00;93.70
8178;DHT22;4130;48.740;9.132;2023-08-08T09:25:12;20.00;93.50
8178;DHT22;4130;48.740;9.132;2023-08-08T09:27:41;20.10;93.30
8178;DHT22;4130;48.740;9.132;2023-08-08T09:30:09;20.30;93.30
8178;DHT22;4130;48.740;9.132;2023-08-08T09:32:39;20.40;93.10
8178;DHT22;4130;48.740;9.132;2023-08-08T09:35:07;20.30;93.00
8178;DHT22;4130;48.740;9.132;2023-08-08T09:37:35;20.50;92.80
8178;DHT22;4130;48.740;9.132;2023-08-08T09:40:04;20.60;92.70
8178;DHT22;4130;48.740;9.132;2023-08-08T09:42:34;21.00;92.10
8178;DHT22;4130;48.740;9.132;2023-08-08T09:45:01;21.10;92.00
8178;DHT22;4130;48.740;9.132;2023-08-08T09:47:28;21.00;91.60
8178;DHT22;4130;48.740;9.132;2023-08-08T09:49:59;20.90;92.10
8178;DHT22;4130;48.740;9.132;2023-08-08T09:52:27;20.60;91.40
8178;DHT22;4130;48.740;9.132;2023-08-08T09:54:55;20.60;92.20
8178;DHT22;4130;48.740;9.132;2023-08-08T09:57:23;20.60;92.10
8178;DHT22;4130;48.740;9.132;2023-08-08T09:59:51;20.70;91.70
8178;DHT22;4130;48.740;9.132;2023-08-08T10:02:18;20.50;91.70
8178;DHT22;4130;48.740;9.132;2023-08-08T10:04:46;20.40;91.90
8178;DHT22;4130;48.740;9.132;2023-08-08T10:07:14;20.20;91.70
8178;DHT22;4130;48.740;9.132;2023-08-08T10:09:41;20.10;92.20
8178;DHT22;4130;48.740;9.132;2023-08-08T10:12:09;20.00;91.50
8178;DHT22;4130;48.740;9.132;2023-08-08T10:14:41;20.20;91.80
8178;DHT22;4130;48.740;9.132;2023-08-08T10:17:12;20.30;91.60
8178;DHT22;4130;48.740;9.132;2023-08-08T10:19:39;20.30;91.90
8178;DHT22;4130;48.740;9.132;2023-08-08T10:22:08;20.30;91.90
8178;DHT22;4130;48.740;9.132;2023-08-08T10:24:37;20.20;91.80
8178;DHT22;4130;48.740;9.132;2023-08-08T10:27:05;20.10;92.30
8178;DHT22;4130;48.740;9.132;2023-08-08T10:29:33;20.20;92.10
8178;DHT22;4130;48.740;9.132;2023-08-08T10:32:01;20.10;91.30
8178;DHT22;4130;48.740;9.132;2023-08-08T10:34:37;20.00;91.60
8178;DHT22;4130;48.740;9.132;2023-08-08T10:37:12;20.00;91.50
8178;DHT22;4130;48.740;9.132;2023-08-08T10:40:03;20.10;91.50
8178;DHT22;4130;48.740;9.132;2023-08-08T10:42:47;20.10;91.10
8178;DHT22;4130;48.740;9.132;2023-08-08T10:45:15;20.20;90.20
8178;DHT22;4130;48.740;9.132;2023-08-08T10:47:43;20.30;90.20
8178;DHT22;4130;48.740;9.132;2023-08-08T10:50:12;20.40;89.80
8178;DHT22;4130;48.740;9.132;2023-08-08T10:52:56;20.90;90.90
8178;DHT22;4130;48.740;9.132;2023-08-08T10:55:26;21.30;87.80
8178;DHT22;4130;48.740;9.132;2023-08-08T10:57:55;21.30;88.20
8178;DHT22;4130;48.740;9.132;2023-08-08T11:00:26;21.30;87.10
8178;DHT22;4130;48.740;9.132;2023-08-08T11:02:54;21.30;87.90
8178;DHT22;4130;48.740;9.132;2023-08-08T11:05:22;21.10;87.60
8178;DHT22;4130;48.740;9.132;2023-08-08T11:07:50;21.10;88.50
8178;DHT22;4130;48.740;9.132;2023-08-08T11:10:17;21.10;87.90
8178;DHT22;4130;48.740;9.132;2023-08-08T11:12:55;21.50;88.90
8178;DHT22;4130;48.740;9.132;2023-08-08T11:15:25;22.10;88.10
8178;DHT22;4130;48.740;9.132;2023-08-08T11:17:53;22.70;88.60
8178;DHT22;4130;48.740;9.132;2023-08-08T11:20:22;23.20;86.20
8178;DHT22;4130;48.740;9.132;2023-08-08T11:22:53;23.20;83.90
8178;DHT22;4130;48.740;9.132;2023-08-08T11:25:21;23.20;81.70
8178;DHT22;4130;48.740;9.132;2023-08-08T11:27:51;22.90;80.40
8178;DHT22;4130;48.740;9.132;2023-08-08T11:30:21;22.30;81.40
8178;DHT22;4130;48.740;9.132;2023-08-08T11:32:50;21.80;82.80
8178;DHT22;4130;48.740;9.132;2023-08-08T11:35:17;21.50;83.40
8178;DHT22;4130;48.740;9.132;2023-08-08T11:37:45;21.30;83.80
8178;DHT22;4130;48.740;9.132;2023-08-08T11:40:13;21.20;86.40
8178;DHT22;4130;48.740;9.132;2023-08-08T11:42:42;21.30;85.50
8178;DHT22;4130;48.740;9.132;2023-08-08T11:45:11;21.20;83.80
8178;DHT22;4130;48.740;9.132;2023-08-08T11:47:40;21.20;85.80
8178;DHT22;4130;48.740;9.132;2023-08-08T11:50:08;21.50;85.00
8178;DHT22;4130;48.740;9.132;2023-08-08T11:52:40;21.50;85.00
8178;DHT22;4130;48.740;9.132;2023-08-08T11:55:08;21.50;85.80
8178;DHT22;4130;48.740;9.132;2023-08-08T11:57:36;21.90;82.90
8178;DHT22;4130;48.740;9.132;2023-08-08T12:00:04;22.10;81.50
8178;DHT22;4130;48.740;9.132;2023-08-08T12:02:33;22.00;80.80
8178;DHT22;4130;48.740;9.132;2023-08-08T12:05:05;21.90;82.00
8178;DHT22;4130;48.740;9.132;2023-08-08T12:07:32;21.90;83.40
8178;DHT22;4130;48.740;9.132;2023-08-08T12:10:00;22.40;84.80
8178;DHT22;4130;48.740;9.132;2023-08-08T12:12:28;22.70;84.50
8178;DHT22;4130;48.740;9.132;2023-08-08T12:14:56;22.60;82.60
8178;DHT22;4130;48.740;9.132;2023-08-08T12:17:23;22.40;85.00
8178;DHT22;4130;48.740;9.132;2023-08-08T12:19:50;22.50;83.40
8178;DHT22;4130;48.740;9.132;2023-08-08T12:22:19;22.70;83.30
8178;DHT22;4130;48.740;9.132;2023-08-08T12:24:47;22.80;82.10
8178;DHT22;4130;48.740;9.132;2023-08-08T12:27:14;22.70;83.30
8178;DHT22;4130;48.740;9.132;2023-08-08T12:29:41;22.60;83.10
8178;DHT22;4130;48.740;9.132;2023-08-08T12:32:08;22.20;82.20
8178;DHT22;4130;48.740;9.132;2023-08-08T12:34:35;21.90;83.10
8178;DHT22;4130;48.740;9.132;2023-08-08T12:37:02;21.90;83.90
8178;DHT22;4130;48.740;9.132;2023-08-08T12:42:01;22.30;83.20
8178;DHT22;4130;48.740;9.132;2023-08-08T12:44:28;22.30;83.70
8178;DHT22;4130;48.740;9.132;2023-08-08T12:46:55;22.40;83.80
8178;DHT22;4130;48.740;9.132;2023-08-08T12:49:22;22.50;85.10
8178;DHT22;4130;48.740;9.132;2023-08-08T12:51:50;22.80;85.30
8178;DHT22;4130;48.740;9.132;2023-08-08T12:54:17;23.70;86.00
8178;DHT22;4130;48.740;9.132;2023-08-08T12:56:44;22.00;84.30
8178;DHT22;4130;48.740;9.132;2023-08-08T12:59:13;23.10;84.10
8178;DHT22;4130;48.740;9.132;2023-08-08T13:01:40;23.00;84.80
8178;DHT22;4130;48.740;9.132;2023-08-08T13:04:07;22.80;83.30
8178;DHT22;4130;48.740;9.132;2023-08-08T13:06:34;22.80;82.10
8178;DHT22;4130;48.740;9.132;2023-08-08T13:09:01;22.60;82.60
8178;DHT22;4130;48.740;9.132;2023-08-08T13:11:29;22.30;83.10
8178;DHT22;4130;48.740;9.132;2023-08-08T13:13:56;22.00;83.10
8178;DHT22;4130;48.740;9.132;2023-08-08T13:16:25;21.70;83.90
8178;DHT22;4130;48.740;9.132;2023-08-08T13:18:52;21.40;84.10
8178;DHT22;4130;48.740;9.132;2023-08-08T13:21:19;21.00;84.80
8178;DHT22;4130;48.740;9.132;2023-08-08T13:23:46;20.80;85.40
8178;DHT22;4130;48.740;9.132;2023-08-08T13:26:13;20.80;86.40
8178;DHT22;4130;48.740;9.132;2023-08-08T13:28:40;21.00;86.30
8178;DHT22;4130;48.740;9.132;2023-08-08T13:31:08;21.10;85.80
8178;DHT22;4130;48.740;9.132;2023-08-08T13:33:37;21.50;87.30
8178;DHT22;4130;48.740;9.132;2023-08-08T13:36:08;22.10;87.10
8178;DHT22;4130;48.740;9.132;2023-08-08T13:38:35;22.60;86.20
8178;DHT22;4130;48.740;9.132;2023-08-08T13:41:02;23.00;85.10
8178;DHT22;4130;48.740;9.132;2023-08-08T13:43:30;23.20;86.00
8178;DHT22;4130;48.740;9.132;2023-08-08T13:46:02;23.30;85.30
8178;DHT22;4130;48.740;9.132;2023-08-08T13:48:36;23.20;84.60
8178;DHT22;4130;48.740;9.132;2023-08-08T13:51:03;23.00;84.70
8178;DHT22;4130;48.740;9.132;2023-08-08T13:53:30;22.90;86.90
8178;DHT22;4130;48.740;9.132;2023-08-08T13:55:58;22.80;85.10
8178;DHT22;4130;48.740;9.132;2023-08-08T13:58:25;22.40;83.30
8178;DHT22;4130;48.740;9.132;2023-08-08T14:00:54;22.10;85.60
8178;DHT22;4130;48.740;9.132;2023-08-08T14:03:22;22.00;84.30
8178;DHT22;4130;48.740;9.132;2023-08-08T14:05:52;21.90;84.60
8178;DHT22;4130;48.740;9.132;2023-08-08T14:08:21;21.90;84.50
8178;DHT22;4130;48.740;9.132;2023-08-08T14:10:48;21.90;84.80
8178;DHT22;4130;48.740;9.132;2023-08-08T14:13:17;22.00;85.00
8178;DHT22;4130;48.740;9.132;2023-08-08T14:15:45;22.20;86.30
8178;DHT22;4130;48.740;9.132;2023-08-08T14:18:13;22.30;86.30
8178;DHT22;4130;48.740;9.132;2023-08-08T14:20:40;22.30;85.50
8178;DHT22;4130;48.740;9.132;2023-08-08T14:23:11;22.20;84.10
8178;DHT22;4130;48.740;9.132;2023-08-08T14:25:38;22.00;84.20
8178;DHT22;4130;48.740;9.132;2023-08-08T14:28:06;21.70;84.80
8178;DHT22;4130;48.740;9.132;2023-08-08T14:30:35;21.60;86.20
8178;DHT22;4130;48.740;9.132;2023-08-08T14:33:03;21.50;86.50
8178;DHT22;4130;48.740;9.132;2023-08-08T14:35:32;21.30;85.80
8178;DHT22;4130;48.740;9.132;2023-08-08T14:38:16;21.10;86.60
8178;DHT22;4130;48.740;9.132;2023-08-08T14:40:43;21.00;85.90
8178;DHT22;4130;48.740;9.132;2023-08-08T14:43:11;21.00;86.30
8178;DHT22;4130;48.740;9.132;2023-08-08T14:45:39;21.10;86.40
8178;DHT22;4130;48.740;9.132;2023-08-08T14:48:11;21.10;86.60
8178;DHT22;4130;48.740;9.132;2023-08-08T14:50:39;21.10;86.00
8178;DHT22;4130;48.740;9.132;2023-08-08T14:53:07;21.30;87.10
8178;DHT22;4130;48.740;9.132;2023-08-08T14:59:01;21.60;86.80
8178;DHT22;4130;48.740;9.132;2023-08-08T15:01:28;21.50;86.10
8178;DHT22;4130;48.740;9.132;2023-08-08T15:03:57;21.20;85.00
8178;DHT22;4130;48.740;9.132;2023-08-08T15:06:25;20.90;85.10
8178;DHT22;4130;48.740;9.132;2023-08-08T15:08:52;20.80;85.80
8178;DHT22;4130;48.740;9.132;2023-08-08T15:11:20;20.70;85.70
8178;DHT22;4130;48.740;9.132;2023-08-08T15:13:47;20.60;86.30
8178;DHT22;4130;48.740;9.132;2023-08-08T15:16:16;20.60;86.80
8178;DHT22;4130;48.740;9.132;2023-08-08T15:18:46;20.60;87.00
8178;DHT22;4130;48.740;9.132;2023-08-08T15:21:15;20.60;87.70
8178;DHT22;4130;48.740;9.132;2023-08-08T15:24:05;20.80;87.30
8178;DHT22;4130;48.740;9.132;2023-08-08T15:26:46;21.20;86.90
8178;DHT22;4130;48.740;9.132;2023-08-08T15:29:13;21.50;88.10
8178;DHT22;4130;48.740;9.132;2023-08-08T15:31:42;21.80;87.00
8178;DHT22;4130;48.740;9.132;2023-08-08T15:34:09;22.20;88.50
8178;DHT22;4130;48.740;9.132;2023-08-08T15:36:38;22.20;87.40
8178;DHT22;4130;48.740;9.132;2023-08-08T15:39:05;22.00;86.90
8178;DHT22;4130;48.740;9.132;2023-08-08T15:41:34;21.70;86.00
8178;DHT22;4130;48.740;9.132;2023-08-08T15:44:02;21.50;86.30
8178;DHT22;4130;48.740;9.132;2023-08-08T15:46:32;21.20;86.70
8178;DHT22;4130;48.740;9.132;2023-08-08T15:49:05;21.00;87.10
8178;DHT22;4130;48.740;9.132;2023-08-08T15:51:32;20.70;87.70
8178;DHT22;4130;48.740;9.132;2023-08-08T15:54:07;20.50;87.50
8178;DHT22;4130;48.740;9.132;2023-08-08T15:56:34;20.30;87.90
8178;DHT22;4130;48.740;9.132;2023-08-08T15:59:04;20.30;88.60
8178;DHT22;4130;48.740;9.132;2023-08-08T16:01:32;20.30;88.40
8178;DHT22;4130;48.740;9.132;2023-08-08T16:04:03;20.40;88.50
8178;DHT22;4130;48.740;9.132;2023-08-08T16:06:30;20.50;89.00
8178;DHT22;4130;48.740;9.132;2023-08-08T16:08:57;19.70;87.60
8178;DHT22;4130;48.740;9.132;2023-08-08T16:11:24;20.40;88.90
8178;DHT22;4130;48.740;9.132;2023-08-08T16:13:51;20.40;89.00
8178;DHT22;4130;48.740;9.132;2023-08-08T16:16:18;20.60;89.50
8178;DHT22;4130;48.740;9.132;2023-08-08T16:18:46;20.70;89.00
8178;DHT22;4130;48.740;9.132;2023-08-08T16:21:14;20.90;88.70
8178;DHT22;4130;48.740;9.132;2023-08-08T16:23:41;21.00;87.70
8178;DHT22;4130;48.740;9.132;2023-08-08T16:26:09;21.00;87.70
8178;DHT22;4130;48.740;9.132;2023-08-08T16:28:36;20.80;86.90
8178;DHT22;4130;48.740;9.132;2023-08-08T16:31:03;20.60;86.90
8178;DHT22;4130;48.740;9.132;2023-08-08T16:33:31;20.40;87.10
8178;DHT22;4130;48.740;9.132;2023-08-08T16:35:59;20.20;88.40
8178;DHT22;4130;48.740;9.132;2023-08-08T16:38:27;20.10;88.80
8178;DHT22;4130;48.740;9.132;2023-08-08T16:40:54;19.90;89.50